Time;durP1;ratioP1;P1;durP2;ratioP2;P2;SDS_P1;SDS_P2;PMS_P1;PMS_P2;Temp;Humidity;BMP_temperature;BMP_pressure;BME280_temperature;BME280_humidity;BME280_pressure;Samples;Min_cycle;Max_cycle;Signal;HPM_P1;HPM_P2
2022/01/29 00:01:02;;;;;;;18.85;12.90;;;;;;;7.03;69.80;101629.25;5113141;28;20048;-63
2022/01/29 00:03:30;;;;;;;22.38;14.70;;;;;;;7.11;69.26;101617.72;5113161;28;20496;-62
2022/01/29 00:05:59;;;;;;;17.50;12.10;;;;;;;7.02;69.60;101614.59;5113700;28;20404;-62
2022/01/29 00:08:27;;;;;;;17.73;13.32;;;;;;;6.83;70.93;101607.75;5119762;27;20407;-62
2022/01/29 00:11:06;;;;;;;17.77;11.95;;;;;;;7.07;69.68;101572.22;5123064;27;20476;-62
2022/01/29 00:13:34;;;;;;;19.35;11.45;;;;;;;7.00;70.29;101574.41;5108580;28;20066;-62
2022/01/29 00:16:01;;;;;;;17.83;11.95;;;;;;;7.10;69.75;101580.03;5111044;28;20052;-62
2022/01/29 00:18:29;;;;;;;19.15;12.02;;;;;;;6.99;69.32;101589.34;5107490;28;20059;-62
2022/01/29 00:20:56;;;;;;;17.42;11.32;;;;;;;6.87;69.76;101592.28;5110980;28;20483;-62
2022/01/29 00:23:23;;;;;;;20.27;11.95;;;;;;;6.90;69.29;101588.97;5107307;28;20055;-62
2022/01/29 00:25:51;;;;;;;15.55;10.82;;;;;;;7.07;69.00;101588.84;5114231;27;20055;-62
2022/01/29 00:28:20;;;;;;;16.33;11.70;;;;;;;7.04;69.51;101583.84;5133666;27;20051;-62
2022/01/29 00:30:49;;;;;;;17.02;10.90;;;;;;;7.10;69.29;101593.88;5132906;27;20051;-62
2022/01/29 00:33:16;;;;;;;18.73;11.47;;;;;;;7.11;69.53;101581.69;5124794;27;20057;-62
2022/01/29 00:35:43;;;;;;;19.10;11.50;;;;;;;7.26;68.40;101594.84;5123081;27;20047;-62
2022/01/29 00:38:11;;;;;;;17.35;10.93;;;;;;;7.26;68.86;101584.56;5126057;27;20395;-62
2022/01/29 00:40:40;;;;;;;16.30;10.52;;;;;;;7.22;68.94;101590.91;5131689;27;20054;-62
2022/01/29 00:43:10;;;;;;;17.20;11.25;;;;;;;7.29;68.83;101583.25;5108592;28;20048;-62
2022/01/29 00:45:39;;;;;;;;;;;;;;;7.24;68.77;101589.56;5112843;28;20564;-62
2022/01/29 00:48:06;;;;;;;19.83;11.88;;;;;;;7.19;69.19;101580.38;5112805;28;19920;-62
2022/01/29 00:50:34;;;;;;;19.90;11.57;;;;;;;7.31;69.27;101592.94;5112146;28;20052;-62
2022/01/29 00:53:01;;;;;;;17.08;11.48;;;;;;;7.24;69.28;101591.50;5112629;28;20430;-62
2022/01/29 00:55:31;;;;;;;18.65;12.48;;;;;;;7.10;70.27;101589.19;5112397;28;20055;-62
2022/01/29 00:58:00;;;;;;;21.90;12.20;;;;;;;7.26;69.56;101578.22;5104179;28;20056;-62
2022/01/29 01:00:28;;;;;;;20.15;11.93;;;;;;;7.30;69.51;101580.19;5112566;28;20094;-62
2022/01/29 01:02:59;;;;;;;24.48;12.95;;;;;;;7.44;69.64;101574.19;5104025;28;20054;-62
2022/01/29 01:05:26;;;;;;;25.00;13.32;;;;;;;7.23;69.74;101557.41;5112893;28;20403;-62
2022/01/29 01:07:54;;;;;;;20.88;13.10;;;;;;;7.06;70.59;101556.72;5113033;27;20408;-62
2022/01/29 01:10:21;;;;;;;21.63;13.13;;;;;;;7.26;70.14;101545.78;5132671;27;20099;-62
2022/01/29 01:12:51;;;;;;;23.38;14.57;;;;;;;7.16;70.89;101542.09;5125143;27;20043;-62
2022/01/29 01:15:19;;;;;;;21.98;14.18;;;;;;;7.13;70.42;101537.94;5111998;28;20496;-62
2022/01/29 01:17:46;;;;;;;23.60;14.25;;;;;;;7.15;70.70;101527.41;5121116;27;20467;-62
2022/01/29 01:20:15;;;;;;;23.85;14.75;;;;;;;7.27;70.21;101530.00;5133462;27;20547;-62
2022/01/29 01:22:42;;;;;;;25.42;13.93;;;;;;;7.32;70.65;101510.63;5132728;27;20491;-62
2022/01/29 01:25:10;;;;;;;23.58;14.90;;;;;;;7.45;70.65;101520.41;5133320;27;20051;-62
2022/01/29 01:27:40;;;;;;;26.80;16.45;;;;;;;7.03;71.66;101516.50;5128842;27;20055;-62
2022/01/29 01:30:09;;;;;;;26.10;16.10;;;;;;;6.94;72.28;101523.66;5104364;28;20380;-62
2022/01/29 01:32:37;;;;;;;25.38;14.70;;;;;;;7.22;71.15;101507.78;5132900;27;20396;-62
2022/01/29 01:35:12;;;;;;;23.52;14.25;;;;;;;7.22;71.71;101505.84;5132762;27;20065;-62
2022/01/29 01:37:48;;;;;;;29.10;16.38;;;;;;;7.14;72.25;101497.19;5132680;27;20059;-62
2022/01/29 01:40:20;;;;;;;29.77;16.30;;;;;;;7.04;72.16;101495.22;5132932;28;20432;-62
2022/01/29 01:42:52;;;;;;;24.58;15.80;;;;;;;7.16;71.70;101483.91;5132477;28;20384;-62
2022/01/29 01:45:19;;;;;;;25.77;15.20;;;;;;;7.13;71.62;101476.97;5112597;27;20051;-62
2022/01/29 01:47:46;;;;;;;28.13;16.20;;;;;;;7.23;70.92;101479.81;5096715;28;20048;-62
2022/01/29 01:50:17;;;;;;;24.52;15.40;;;;;;;7.16;71.80;101472.84;5112335;27;20055;-62
2022/01/29 01:52:46;;;;;;;26.90;16.17;;;;;;;7.16;71.68;101470.91;5107721;28;20048;-62
2022/01/29 01:55:17;;;;;;;26.13;15.88;;;;;;;7.11;72.14;101465.34;5120857;27;20069;-62
2022/01/29 01:57:45;;;;;;;32.15;16.30;;;;;;;7.23;72.11;101457.66;5128500;27;20043;-61
2022/01/29 02:00:13;;;;;;;26.48;15.70;;;;;;;7.11;72.26;101465.34;5126598;27;20047;-62
2022/01/29 02:02:41;;;;;;;27.45;16.13;;;;;;;7.08;72.80;101460.34;5098399;28;20501;-62
2022/01/29 02:05:10;;;;;;;24.45;16.20;;;;;;;7.12;72.61;101461.47;5116532;28;20048;-65
2022/01/29 02:07:38;;;;;;;26.40;15.90;;;;;;;7.29;71.97;101459.34;5116797;28;20047;-62
2022/01/29 02:10:10;;;;;;;27.58;15.93;;;;;;;7.32;71.42;101453.25;5128215;27;20055;-62
2022/01/29 02:12:46;;;;;;;28.33;16.25;;;;;;;7.03;72.94;101441.72;5136035;27;20062;-62
2022/01/29 02:15:15;;;;;;;26.48;16.83;;;;;;;7.07;72.55;101445.63;5120911;27;20048;-62
2022/01/29 02:17:42;;;;;;;24.67;15.88;;;;;;;7.14;73.06;101445.41;5095967;28;20059;-62
2022/01/29 02:20:10;;;;;;;25.92;14.57;;;;;;;7.23;72.91;101441.03;5101341;28;20488;-62
2022/01/29 02:22:46;;;;;;;25.63;15.30;;;;;;;7.32;72.03;101456.03;5136123;27;20058;-62
2022/01/29 02:25:34;;;;;;;22.27;13.88;;;;;;;7.21;71.67;101423.00;5136458;27;20050;-62
2022/01/29 02:28:03;;;;;;;26.67;15.00;;;;;;;7.10;73.48;101419.34;5136435;27;20046;-62
2022/01/29 02:30:33;;;;;;;;;;;;;;;7.26;72.12;101434.94;5120080;27;20415;-62
2022/01/29 02:33:03;;;;;;;24.15;15.75;;;;;;;7.17;73.46;101419.94;5108128;28;19931;-62
2022/01/29 02:35:34;;;;;;;23.15;14.90;;;;;;;7.06;73.63;101413.50;5124545;27;20058;-62
2022/01/29 02:38:02;;;;;;;25.63;15.75;;;;;;;7.23;72.48;101418.84;5136004;27;20063;-62
2022/01/29 02:40:35;;;;;;;25.08;15.55;;;;;;;7.27;72.66;101410.84;5135674;27;20055;-62
2022/01/29 02:43:11;;;;;;;22.98;14.00;;;;;;;7.09;73.79;101403.81;5117643;27;20550;-62
2022/01/29 02:45:40;;;;;;;22.80;15.35;;;;;;;7.26;73.18;101396.13;5122251;27;20483;-62
2022/01/29 02:48:08;;;;;;;21.30;14.70;;;;;;;7.39;73.22;101393.97;5100709;27;20043;-62
2022/01/29 02:50:36;;;;;;;27.88;15.30;;;;;;;7.23;73.20;101385.63;5127724;27;20487;-62
2022/01/29 02:53:11;;;;;;;23.85;14.13;;;;;;;7.24;73.19;101367.03;5116050;28;20047;-62
2022/01/29 02:55:39;;;;;;;23.05;14.15;;;;;;;7.13;74.07;101359.78;5112157;28;20052;-62
2022/01/29 02:58:07;;;;;;;23.60;14.35;;;;;;;7.09;73.65;101356.72;5114448;28;20518;-62
2022/01/29 03:00:35;;;;;;;26.95;14.93;;;;;;;7.21;74.07;101359.28;5122983;27;20058;-62
2022/01/29 03:03:03;;;;;;;28.25;15.57;;;;;;;7.29;72.67;101358.75;5114771;28;20059;-62
2022/01/29 03:05:30;;;;;;;23.67;15.02;;;;;;;7.18;73.75;101362.56;5105785;28;20058;-62
2022/01/29 03:08:00;;;;;;;24.80;14.55;;;;;;;7.18;73.28;101366.19;5127841;27;20047;-62
2022/01/29 03:10:29;;;;;;;25.63;14.90;;;;;;;7.12;74.30;101350.66;5133114;27;20054;-62
2022/01/29 03:12:57;;;;;;;25.43;15.50;;;;;;;7.32;73.12;101350.72;5120807;27;20058;-62
2022/01/29 03:15:24;;;;;;;26.00;15.32;;;;;;;7.08;74.08;101355.88;5133564;27;20515;-62
2022/01/29 03:17:52;;;;;;;24.17;15.05;;;;;;;7.37;73.97;101357.38;5120419;27;20054;-62
2022/01/29 03:20:20;;;;;;;25.33;14.35;;;;;;;7.36;73.73;101347.44;5112997;27;20052;-62
2022/01/29 03:22:51;;;;;;;24.52;15.68;;;;;;;7.24;74.68;101342.09;5094096;28;20044;-62
2022/01/29 03:25:18;;;;;;;23.38;14.27;;;;;;;7.08;75.57;101353.13;5093985;28;20048;-62
2022/01/29 03:27:47;;;;;;;25.63;14.07;;;;;;;7.24;74.83;101351.25;5093327;28;20056;-62
2022/01/29 03:30:15;;;;;;;22.30;13.43;;;;;;;7.26;74.48;101343.50;5093998;28;20382;-62
2022/01/29 03:32:44;;;;;;;24.40;13.90;;;;;;;7.04;75.74;101342.84;5103661;27;20059;-62
2022/01/29 03:35:13;;;;;;;23.52;13.73;;;;;;;7.08;75.74;101333.72;5106863;28;20456;-62
2022/01/29 03:37:42;;;;;;;23.35;13.73;;;;;;;7.24;75.20;101331.84;5091391;28;20056;-63
2022/01/29 03:40:13;;;;;;;25.23;13.93;;;;;;;7.09;76.49;101329.03;5114721;28;20060;-63
2022/01/29 03:42:45;;;;;;;23.05;14.38;;;;;;;7.18;75.94;101316.34;5105590;28;20393;-62
2022/01/29 03:45:19;;;;;;;21.27;13.30;;;;;;;7.08;75.77;101317.09;5114554;28;20527;-62
2022/01/29 03:47:48;;;;;;;20.45;13.73;;;;;;;7.21;76.55;101315.78;5104728;28;20747;-62
2022/01/29 03:50:18;;;;;;;22.67;13.48;;;;;;;7.27;75.87;101314.69;5105803;28;20062;-62
2022/01/29 03:52:46;;;;;;;21.27;12.75;;;;;;;7.04;77.51;101321.53;5104939;28;20059;-62
2022/01/29 03:55:13;;;;;;;20.05;12.85;;;;;;;7.18;76.57;101310.78;5113770;28;20405;-58
2022/01/29 03:57:41;;;;;;;21.38;13.23;;;;;;;7.38;75.60;101295.34;5105625;28;20040;-60
2022/01/29 04:00:12;;;;;;;18.40;12.90;;;;;;;7.22;76.42;101289.72;5114081;28;20048;-62
2022/01/29 04:02:41;;;;;;;17.85;11.82;;;;;;;7.11;76.65;101285.25;5105495;28;20059;-62
2022/01/29 04:05:09;;;;;;;20.60;12.93;;;;;;;7.13;76.88;101291.34;5102026;28;20493;-62
2022/01/29 04:07:36;;;;;;;18.75;12.63;;;;;;;7.21;76.54;101296.38;5094420;28;20052;-62
2022/01/29 04:10:05;;;;;;;18.80;12.07;;;;;;;7.18;76.53;101274.78;5113833;28;20060;-61
2022/01/29 04:12:39;;;;;;;17.20;10.63;;;;;;;7.16;77.16;101271.44;5113555;28;20051;-61
2022/01/29 04:15:07;;;;;;;19.38;11.88;;;;;;;7.16;77.02;101278.91;5114190;28;20047;-62
2022/01/29 04:17:35;;;;;;;17.05;11.77;;;;;;;7.29;76.45;101265.38;5111669;28;20052;-61
2022/01/29 04:20:07;;;;;;;16.50;11.63;;;;;;;7.11;77.90;101271.41;5100077;27;20055;-61
2022/01/29 04:22:34;;;;;;;17.55;12.35;;;;;;;7.10;78.57;101264.22;5084780;28;20056;-61
2022/01/29 04:25:01;;;;;;;18.60;13.63;;;;;;;7.09;78.25;101260.59;5093858;28;20082;-61
2022/01/29 04:27:38;;;;;;;16.92;11.57;;;;;;;7.05;78.77;101266.94;5101889;28;20048;-61
2022/01/29 04:30:11;;;;;;;16.13;10.65;;;;;;;7.20;78.27;101257.84;5113437;28;20055;-62
2022/01/29 04:35:24;;;;;;;16.30;10.63;;;;;;;7.23;78.14;101258.16;5119568;28;20059;-61
2022/01/29 04:37:52;;;;;;;16.67;9.98;;;;;;;7.05;78.14;101265.00;5104870;28;20051;-62
2022/01/29 04:40:20;;;;;;;18.27;10.27;;;;;;;6.90;80.34;101265.78;5094070;28;20056;-62
2022/01/29 04:42:47;;;;;;;14.02;10.23;;;;;;;7.14;79.41;101268.09;5104271;28;20055;-62
2022/01/29 04:45:15;;;;;;;18.00;10.52;;;;;;;7.16;79.68;101256.72;5112948;28;20052;-60
2022/01/29 04:47:43;;;;;;;13.02;8.93;;;;;;;7.15;80.31;101264.22;5104484;28;20058;-60
2022/01/29 04:50:11;;;;;;;15.88;9.07;;;;;;;7.16;80.88;101263.13;5112390;28;20055;-62
2022/01/29 04:52:40;;;;;;;14.10;9.27;;;;;;;7.28;79.35;101260.91;5101232;28;20051;-62
2022/01/29 04:55:10;;;;;;;13.07;9.30;;;;;;;7.34;78.84;101259.00;5102121;28;20055;-62
2022/01/29 04:57:39;;;;;;;11.70;8.27;;;;;;;7.27;79.71;101253.72;5112626;28;20052;-61
2022/01/29 05:00:10;;;;;;;12.90;8.02;;;;;;;7.07;80.53;101264.75;5109165;28;20056;-62
2022/01/29 05:02:37;;;;;;;11.52;7.63;;;;;;;7.23;80.15;101255.38;5103588;28;20419;-62
2022/01/29 05:05:06;;;;;;;13.85;8.63;;;;;;;7.13;80.71;101247.03;5111097;28;20051;-61
2022/01/29 05:07:33;;;;;;;11.75;7.93;;;;;;;7.10;81.02;101253.13;5111704;28;20058;-62
2022/01/29 05:10:02;;;;;;;13.20;8.70;;;;;;;7.07;80.98;101235.09;5113093;27;20056;-62
2022/01/29 05:12:35;;;;;;;11.88;8.00;;;;;;;7.07;81.34;101232.31;5112649;28;20062;-62
2022/01/29 05:15:09;;;;;;;11.00;7.82;;;;;;;7.19;81.00;101228.50;5112047;28;20058;-62
2022/01/29 05:28:37;;;;;;;9.80;6.70;;;;;;;7.15;81.76;101219.88;5110728;28;20078;-62
2022/01/29 05:31:05;;;;;;;7.47;5.75;;;;;;;7.15;80.54;101222.66;5111751;28;20047;-61
2022/01/29 05:33:32;;;;;;;6.47;4.78;;;;;;;7.26;80.17;101224.34;5112346;28;20062;-61
2022/01/29 05:35:59;;;;;;;7.45;5.10;;;;;;;7.38;79.89;101215.78;5111206;28;20058;-62
2022/01/29 05:38:27;;;;;;;6.97;4.68;;;;;;;7.25;80.09;101214.38;5112210;28;20373;-62
2022/01/29 05:40:56;;;;;;;6.03;4.78;;;;;;;7.16;80.90;101213.25;5110959;28;20055;-62
2022/01/29 05:43:24;;;;;;;5.28;4.13;;;;;;;7.43;79.36;101209.41;5092912;28;20048;-62
2022/01/29 05:45:54;;;;;;;7.30;4.13;;;;;;;7.18;80.80;101213.81;5111189;28;20062;-62
2022/01/29 05:48:21;;;;;;;5.90;4.35;;;;;;;7.23;80.74;101205.50;5112396;28;20048;-62
2022/01/29 05:50:48;;;;;;;5.05;3.70;;;;;;;7.50;80.01;101199.72;5110838;28;20050;-61
2022/01/29 05:53:16;;;;;;;5.80;4.30;;;;;;;7.45;79.11;101210.78;5111945;28;20051;-62
2022/01/29 05:55:43;;;;;;;5.00;4.00;;;;;;;7.51;79.04;101204.16;5110945;28;20044;-60
2022/01/29 05:58:12;;;;;;;5.28;4.07;;;;;;;7.43;78.75;101195.53;5092076;28;20044;-61
2022/01/29 06:00:39;;;;;;;5.10;3.92;;;;;;;7.32;79.29;101200.25;5099077;28;20054;-62
2022/01/29 06:03:08;;;;;;;6.10;3.92;;;;;;;7.56;78.94;101191.41;5090692;28;20048;-61
2022/01/29 06:05:37;;;;;;;6.82;4.60;;;;;;;7.35;79.27;101190.53;5110794;28;20058;-61
2022/01/29 06:08:05;;;;;;;5.80;4.10;;;;;;;7.30;79.52;101189.44;5112553;28;20044;-62
2022/01/29 06:10:33;;;;;;;6.72;4.80;;;;;;;7.50;78.35;101179.50;5127317;28;20048;-60
2022/01/29 06:13:05;;;;;;;6.10;4.75;;;;;;;7.58;78.89;101194.72;5132139;28;20062;-61
2022/01/29 06:15:39;;;;;;;5.25;4.22;;;;;;;7.62;78.58;101187.53;5127401;28;20055;-62
2022/01/29 06:18:07;;;;;;;5.63;4.78;;;;;;;7.70;77.85;101187.78;5110405;28;20056;-60
2022/01/29 06:20:35;;;;;;;7.50;5.20;;;;;;;7.72;77.88;101185.56;5112054;28;20063;-62
2022/01/29 06:23:03;;;;;;;6.57;5.47;;;;;;;7.65;77.91;101182.25;5111687;28;20472;-60
2022/01/29 06:25:31;;;;;;;5.75;4.78;;;;;;;7.67;77.83;101180.03;5111104;28;20051;-62
2022/01/29 06:27:59;;;;;;;7.03;5.50;;;;;;;7.64;78.61;101185.31;5111204;28;20047;-62
2022/01/29 06:30:26;;;;;;;8.13;6.10;;;;;;;7.66;79.01;101178.38;5112338;28;20415;-62
2022/01/29 06:32:55;;;;;;;8.00;6.32;;;;;;;7.73;79.20;101167.03;5114114;28;20052;-60
2022/01/29 06:35:22;;;;;;;8.38;6.95;;;;;;;7.68;79.03;101173.38;5115307;28;20491;-60
2022/01/29 06:37:50;;;;;;;8.20;6.50;;;;;;;7.70;79.24;101173.94;5115161;28;20067;-58
2022/01/29 06:40:17;;;;;;;9.90;7.50;;;;;;;7.81;78.74;101182.25;5114887;28;20051;-61
2022/01/29 06:42:44;;;;;;;10.18;7.25;;;;;;;7.55;80.30;101186.97;5100097;28;20048;-61
2022/01/29 06:45:11;;;;;;;10.15;8.13;;;;;;;7.81;79.31;101176.69;5114385;28;20055;-61
2022/01/29 06:47:39;;;;;;;10.18;8.10;;;;;;;7.87;78.61;101172.81;5114160;28;20055;-61
2022/01/29 06:50:08;;;;;;;10.60;8.35;;;;;;;8.02;78.11;101170.03;5114252;28;20063;-60
2022/01/29 06:52:35;;;;;;;10.63;8.25;;;;;;;7.81;79.62;101160.06;5114669;28;20052;-61
2022/01/29 06:55:03;;;;;;;11.23;9.10;;;;;;;7.70;79.51;101156.47;5115330;28;20058;-61
2022/01/29 06:57:30;;;;;;;10.68;8.95;;;;;;;7.70;80.40;101150.91;5115026;28;20503;-61
2022/01/29 07:00:02;;;;;;;12.48;9.63;;;;;;;7.58;80.14;101159.53;5114522;28;20513;-61
2022/01/29 07:02:29;;;;;;;13.43;9.93;;;;;;;7.64;80.89;101163.97;5117827;27;20058;-61
2022/01/29 07:04:56;;;;;;;11.50;8.88;;;;;;;7.80;80.18;101150.09;5128452;27;20051;-61
2022/01/29 07:07:26;;;;;;;12.52;9.40;;;;;;;7.83;79.95;101149.53;5114799;28;20052;-61
2022/01/29 07:09:56;;;;;;;13.30;10.35;;;;;;;7.76;79.98;101154.53;5133482;27;20043;-61
2022/01/29 07:12:25;;;;;;;13.73;10.02;;;;;;;7.81;80.60;101146.19;5135131;27;20051;-62
2022/01/29 07:14:52;;;;;;;13.77;10.80;;;;;;;7.83;80.33;101139.28;5134533;27;20065;-62
2022/01/29 07:17:22;;;;;;;13.35;10.70;;;;;;;8.02;79.53;101133.97;5135588;27;20042;-62
2022/01/29 07:19:50;;;;;;;15.75;12.35;;;;;;;7.90;80.07;101136.22;5128637;27;20048;-62
2022/01/29 07:22:18;;;;;;;14.57;11.23;;;;;;;7.70;80.76;101140.66;5106196;27;20051;-62
2022/01/29 07:24:47;;;;;;;13.80;11.30;;;;;;;7.66;81.04;101139.53;5133376;27;20055;-62
2022/01/29 07:27:15;;;;;;;15.48;11.20;;;;;;;7.67;82.16;101151.50;5133543;27;20044;-62
2022/01/29 07:29:45;;;;;;;16.25;11.52;;;;;;;7.84;80.77;101135.38;5131197;27;20074;-62
2022/01/29 07:32:13;;;;;;;14.77;11.60;;;;;;;7.98;80.44;101146.75;5105607;27;20062;-62
2022/01/29 07:34:41;;;;;;;14.55;11.20;;;;;;;8.01;80.29;101162.00;5114415;28;20051;-62
2022/01/29 07:37:08;;;;;;;15.55;11.75;;;;;;;7.85;80.62;101145.38;5106479;28;20047;-62
2022/01/29 07:39:36;;;;;;;17.83;12.70;;;;;;;7.84;81.05;101145.66;5128553;27;20055;-62
2022/01/29 07:42:05;;;;;;;16.13;11.82;;;;;;;8.12;79.81;101136.69;5125169;27;20050;-62
2022/01/29 07:44:32;;;;;;;14.70;12.13;;;;;;;8.05;80.60;101141.72;5133562;27;20054;-62
2022/01/29 07:47:02;;;;;;;16.70;12.23;;;;;;;8.16;80.52;101150.84;5118754;27;20047;-62
2022/01/29 07:49:29;;;;;;;15.60;12.13;;;;;;;8.15;80.69;101140.88;5134273;27;20054;-62
2022/01/29 07:51:57;;;;;;;15.13;11.45;;;;;;;8.28;79.50;101134.72;5120766;27;20054;-62
2022/01/29 07:54:24;;;;;;;15.75;12.35;;;;;;;8.37;79.72;101125.81;5101416;27;20055;-62
2022/01/29 07:56:52;;;;;;;16.58;12.05;;;;;;;8.40;79.63;101141.88;5123306;27;20050;-62
2022/01/29 07:59:20;;;;;;;17.50;11.90;;;;;;;8.34;79.47;101133.59;5108531;27;20063;-62
2022/01/29 08:01:48;;;;;;;18.88;14.02;;;;;;;8.07;81.16;101133.94;5085679;28;20059;-63
2022/01/29 08:04:15;;;;;;;20.00;13.32;;;;;;;8.16;80.70;101119.50;5084656;28;20048;-61
2022/01/29 08:06:42;;;;;;;17.08;12.70;;;;;;;8.26;80.83;101125.03;5091582;28;20048;-62
2022/01/29 08:09:10;;;;;;;21.95;14.93;;;;;;;8.38;80.19;101127.44;5069352;28;20055;-61
2022/01/29 08:11:37;;;;;;;18.38;13.65;;;;;;;8.11;81.57;101112.84;5088267;28;20052;-61
2022/01/29 08:14:05;;;;;;;21.23;15.45;;;;;;;8.27;80.72;101112.78;5092479;28;20059;-61
2022/01/29 08:16:33;;;;;;;18.30;13.65;;;;;;;8.27;80.41;101115.56;5088778;28;20051;-62
2022/01/29 08:19:01;;;;;;;22.83;15.80;;;;;;;8.07;81.50;101122.03;5076158;28;20048;-62
2022/01/29 08:21:28;;;;;;;22.52;15.70;;;;;;;8.14;81.86;101114.22;5092075;28;20063;-62
2022/01/29 08:23:56;;;;;;;20.02;14.90;;;;;;;8.32;81.16;101088.63;5091961;28;20059;-61
2022/01/29 08:26:23;;;;;;;22.10;14.48;;;;;;;8.49;80.50;101102.19;5091242;28;20044;-63
2022/01/29 08:28:51;;;;;;;21.02;15.40;;;;;;;8.40;80.87;101095.53;5091592;28;20044;-62
2022/01/29 08:31:18;;;;;;;23.02;15.50;;;;;;;8.29;83.49;101102.22;5092549;28;20054;-42
2022/01/29 08:33:47;;;;;;;22.27;16.58;;;;;;;8.14;84.75;101095.63;5092567;28;20059;-45
2022/01/29 08:36:14;;;;;;;19.45;15.02;;;;;;;8.33;84.71;101095.81;5090401;28;20056;-46
2022/01/29 08:38:42;;;;;;;20.63;15.43;;;;;;;8.13;84.26;101096.75;5090418;28;20066;-43
2022/01/29 08:41:09;;;;;;;19.13;14.40;;;;;;;8.63;80.94;101082.97;5082120;28;20052;-60
2022/01/29 08:43:37;;;;;;;17.05;13.50;;;;;;;8.78;79.59;101101.47;5089036;28;20052;-60
2022/01/29 08:46:04;;;;;;;19.13;14.35;;;;;;;8.58;80.27;101107.97;5091020;28;20064;-61
2022/01/29 08:48:32;;;;;;;19.30;14.40;;;;;;;8.47;80.63;101090.53;5090144;28;20039;-61
2022/01/29 08:51:00;;;;;;;18.15;13.52;;;;;;;8.51;80.72;101105.50;5088709;28;20048;-60
2022/01/29 08:53:28;;;;;;;19.50;14.80;;;;;;;8.57;80.35;101105.47;5091046;28;20044;-60
2022/01/29 08:55:55;;;;;;;18.17;14.55;;;;;;;8.45;81.29;101091.94;5089166;28;20055;-58
2022/01/29 08:58:22;;;;;;;21.13;18.73;;;;;;;8.64;79.84;101095.72;5091314;28;20055;-61
2022/01/29 09:00:52;;;;;;;17.35;13.50;;;;;;;8.60;80.47;101094.63;5090611;28;20052;-62
2022/01/29 09:03:23;;;;;;;18.75;14.52;;;;;;;8.56;80.24;101079.66;5099958;28;20420;-61
2022/01/29 09:05:50;;;;;;;19.85;14.30;;;;;;;8.62;80.16;101080.47;5120264;27;20051;-61
2022/01/29 09:08:19;;;;;;;17.50;14.48;;;;;;;8.80;79.45;101068.69;5110793;27;20394;-61
2022/01/29 09:10:47;;;;;;;18.57;14.37;;;;;;;8.81;79.25;101069.53;5105933;28;20617;-61
2022/01/29 09:13:14;;;;;;;17.85;13.80;;;;;;;8.75;79.62;101063.16;5107862;28;20481;-60
2022/01/29 09:15:42;;;;;;;17.23;14.15;;;;;;;8.63;80.11;101060.75;5112200;28;20055;-61
2022/01/29 09:18:09;;;;;;;17.58;13.68;;;;;;;8.68;80.51;101055.16;5103906;28;20055;-60
2022/01/29 09:20:36;;;;;;;17.05;13.38;;;;;;;8.67;80.06;101058.22;5110833;28;20055;-62
2022/01/29 09:23:08;;;;;;;20.95;14.07;;;;;;;8.72;80.23;101058.19;5103986;28;20409;-62
2022/01/29 09:25:37;;;;;;;18.33;14.48;;;;;;;8.69;80.92;101056.81;5092397;28;20050;-61
2022/01/29 09:28:04;;;;;;;19.75;15.25;;;;;;;8.70;80.82;101044.59;5104884;28;20047;-61
2022/01/29 09:30:32;;;;;;;19.80;15.43;;;;;;;8.80;80.93;101035.38;5108484;28;20043;-60
2022/01/29 09:33:00;;;;;;;20.02;14.27;;;;;;;8.84;80.68;101036.44;5122613;27;20046;-61
2022/01/29 09:35:28;;;;;;;17.85;14.13;;;;;;;8.87;81.24;101021.16;5106510;27;20054;-61
2022/01/29 09:37:55;;;;;;;17.15;13.63;;;;;;;8.71;81.74;101037.06;5108244;28;20067;-63
2022/01/29 09:40:24;;;;;;;15.30;12.18;;;;;;;8.95;80.17;101026.09;5110651;27;20055;-62
2022/01/29 09:42:52;;;;;;;16.02;13.05;;;;;;;9.00;80.04;101039.91;5112816;28;20387;-60
2022/01/29 09:45:22;;;;;;;13.40;11.93;;;;;;;8.81;81.39;101031.44;5111499;28;20059;-62
2022/01/29 09:47:50;;;;;;;14.18;11.90;;;;;;;8.93;80.00;101034.69;5111207;28;20053;-62
2022/01/29 09:50:19;;;;;;;13.60;11.32;;;;;;;9.00;80.32;101037.16;5111597;28;20058;-61
2022/01/29 09:52:46;;;;;;;14.00;11.47;;;;;;;8.84;80.76;101019.78;5110529;28;20130;-62
2022/01/29 09:55:14;;;;;;;13.35;10.85;;;;;;;8.92;80.18;101021.94;5110955;28;20047;-62
2022/01/29 09:57:41;;;;;;;11.80;10.43;;;;;;;8.83;80.81;101031.16;5111612;28;20044;-60
2022/01/29 10:00:11;;;;;;;12.27;10.00;;;;;;;8.89;80.71;101028.06;5102449;28;20051;-60
2022/01/29 10:02:39;;;;;;;12.65;10.82;;;;;;;8.94;80.45;101027.19;5110133;28;20048;-61
2022/01/29 10:05:12;;;;;;;13.27;10.85;;;;;;;9.05;80.38;101026.00;5109526;28;20048;-62
2022/01/29 10:07:39;;;;;;;12.07;10.65;;;;;;;9.21;80.13;101025.88;5111007;28;20047;-63
2022/01/29 10:10:20;;;;;;;11.10;9.63;;;;;;;9.09;80.01;101024.31;5122102;27;20062;-63
2022/01/29 10:12:47;;;;;;;11.05;9.75;;;;;;;9.20;79.94;101026.97;5114131;28;20051;-62
2022/01/29 10:15:16;;;;;;;10.50;9.43;;;;;;;9.22;79.33;101031.13;5113673;28;20058;-62
2022/01/29 10:17:49;;;;;;;11.02;9.55;;;;;;;9.33;78.91;101020.75;5114625;27;20050;-62
2022/01/29 10:20:20;;;;;;;9.80;8.77;;;;;;;9.17;80.04;101017.28;5113190;27;20519;-63
2022/01/29 10:22:50;;;;;;;10.20;8.48;;;;;;;9.23;79.49;101021.66;5105533;27;20066;-62
2022/01/29 10:25:21;;;;;;;10.02;9.02;;;;;;;9.29;79.24;101017.72;5113822;27;20491;-62
2022/01/29 10:28:11;;;;;;;11.55;9.10;;;;;;;9.32;78.92;101011.59;5114095;28;20056;-59
2022/01/29 10:30:59;;;;;;;10.80;9.15;;;;;;;9.43;78.07;101005.91;5119615;27;20066;-62
2022/01/29 10:33:29;;;;;;;11.95;10.15;;;;;;;9.33;78.59;101007.66;5094930;28;20048;-61
2022/01/29 10:35:58;;;;;;;12.35;10.20;;;;;;;9.27;79.03;101005.25;5111967;28;20051;-62
2022/01/29 10:38:27;;;;;;;13.82;10.77;;;;;;;9.34;78.64;100983.47;5115235;28;20051;-62
2022/01/29 10:41:20;;;;;;;13.15;10.75;;;;;;;9.26;78.84;100971.06;5114388;28;20052;-63
2022/01/29 10:44:16;;;;;;;12.20;10.45;;;;;;;9.08;79.59;100971.78;5115129;28;20063;-63
2022/01/29 10:46:47;;;;;;;14.52;11.95;;;;;;;9.28;78.93;100970.75;5116003;28;20055;-61
2022/01/29 10:49:23;;;;;;;17.38;12.85;;;;;;;9.35;78.87;100963.72;5114019;28;20044;-60
2022/01/29 10:51:59;;;;;;;15.40;12.13;;;;;;;9.32;78.85;100960.69;5113449;28;20052;-61
2022/01/29 10:54:30;;;;;;;17.67;12.65;;;;;;;9.23;79.28;100952.16;5094325;28;20051;-60
2022/01/29 10:57:00;;;;;;;14.15;12.00;;;;;;;9.39;78.94;100949.25;5109471;28;20063;-61
2022/01/29 10:59:29;;;;;;;12.93;10.75;;;;;;;9.66;77.52;100957.84;5115149;28;20073;-61
2022/01/29 11:01:59;;;;;;;12.27;10.32;;;;;;;9.68;77.51;100938.03;5113258;28;20078;-61
2022/01/29 11:04:30;;;;;;;11.25;9.63;;;;;;;9.60;77.76;100939.53;5113965;28;20048;-63
2022/01/29 11:07:02;;;;;;;11.07;9.63;;;;;;;9.60;78.15;100920.06;5109286;28;20055;-62
2022/01/29 11:09:30;;;;;;;11.90;8.98;;;;;;;9.86;77.15;100934.47;5113987;27;20047;-63
2022/01/29 11:12:02;;;;;;;11.70;9.50;;;;;;;9.78;77.39;100926.78;5112400;27;20408;-62
2022/01/29 11:14:29;;;;;;;14.25;10.73;;;;;;;9.54;78.64;100932.38;5110491;27;20074;-62
2022/01/29 11:17:00;;;;;;;12.63;9.82;;;;;;;9.70;78.35;100911.59;5109724;27;20040;-62
2022/01/29 11:19:27;;;;;;;12.45;10.25;;;;;;;9.75;78.85;100930.19;5112298;27;20058;-62
2022/01/29 11:21:57;;;;;;;12.32;10.30;;;;;;;9.59;80.16;100906.47;5107344;28;20052;-63
2022/01/29 11:24:27;;;;;;;13.15;10.15;;;;;;;9.62;79.96;100897.53;5112873;27;20052;-64
2022/01/29 11:26:55;;;;;;;12.80;10.68;;;;;;;9.76;79.54;100901.22;5113953;27;20044;-63
2022/01/29 11:29:24;;;;;;;13.40;10.88;;;;;;;9.53;80.93;100880.66;5131059;27;20062;-66
2022/01/29 11:32:25;;;;;;;10.63;9.38;;;;;;;9.74;79.65;100868.16;5131148;27;20044;-62
2022/01/29 11:35:18;;;;;;;9.98;8.82;;;;;;;9.72;79.50;100878.75;5114234;28;20277;-63
2022/01/29 11:37:54;;;;;;;9.70;7.53;;;;;;;9.79;79.35;100872.00;5114575;28;20481;-63
2022/01/29 11:40:25;;;;;;;8.68;7.75;;;;;;;9.67;79.86;100869.66;5114344;28;20517;-63
2022/01/29 11:43:06;;;;;;;9.93;8.02;;;;;;;9.58;80.49;100880.59;5114056;28;20051;-63
2022/01/29 11:45:45;;;;;;;8.00;7.20;;;;;;;9.62;80.39;100878.88;5114327;28;20054;-63